sensor_id;sensor_type;location;lat;lon;timestamp;pressure;altitude;pressure_sealevel;temperature;humidity
12799;BME280;19250;42.646;26.980;2023-03-16T00:01:29;97888.28;;;12.37;100.00
12799;BME280;19250;42.646;26.980;2023-03-16T00:03:56;97883.00;;;12.16;100.00
12799;BME280;19250;42.646;26.980;2023-03-16T00:06:23;97891.63;;;12.45;100.00
12799;BME280;19250;42.646;26.980;2023-03-16T00:08:50;97890.16;;;12.09;100.00
12799;BME280;19250;42.646;26.980;2023-03-16T00:11:23;97898.03;;;12.17;100.00
12799;BME280;19250;42.646;26.980;2023-03-16T00:13:52;97891.13;;;11.31;100.00
12799;BME280;19250;42.646;26.980;2023-03-16T00:16:19;97886.28;;;11.20;100.00
12799;BME280;19250;42.646;26.980;2023-03-16T00:18:46;97892.84;;;11.38;100.00
12799;BME280;19250;42.646;26.980;2023-03-16T00:21:14;97887.81;;;11.50;100.00
12799;BME280;19250;42.646;26.980;2023-03-16T00:23:41;97898.66;;;10.70;100.00
12799;BME280;19250;42.646;26.980;2023-03-16T00:26:09;97896.31;;;10.17;100.00
12799;BME280;19250;42.646;26.980;2023-03-16T00:28:38;97899.44;;;10.35;100.00
12799;BME280;19250;42.646;26.980;2023-03-16T00:31:10;97898.34;;;10.80;100.00
12799;BME280;19250;42.646;26.980;2023-03-16T00:33:38;97894.16;;;10.56;100.00
12799;BME280;19250;42.646;26.980;2023-03-16T00:36:08;97876.88;;;10.52;100.00
12799;BME280;19250;42.646;26.980;2023-03-16T00:38:38;97897.31;;;10.96;100.00
12799;BME280;19250;42.646;26.980;2023-03-16T00:41:11;97894.16;;;10.56;100.00
12799;BME280;19250;42.646;26.980;2023-03-16T00:43:40;97897.75;;;10.34;100.00
12799;BME280;19250;42.646;26.980;2023-03-16T00:46:12;97879.34;;;9.80;100.00
12799;BME280;19250;42.646;26.980;2023-03-16T00:48:41;97900.94;;;9.25;100.00
12799;BME280;19250;42.646;26.980;2023-03-16T00:51:10;97905.28;;;8.96;100.00
12799;BME280;19250;42.646;26.980;2023-03-16T00:53:40;97906.88;;;9.50;100.00
12799;BME280;19250;42.646;26.980;2023-03-16T00:56:08;97905.34;;;9.33;100.00
12799;BME280;19250;42.646;26.980;2023-03-16T00:58:37;97922.78;;;9.13;100.00
12799;BME280;19250;42.646;26.980;2023-03-16T01:01:06;97923.63;;;9.13;100.00
12799;BME280;19250;42.646;26.980;2023-03-16T01:03:36;97932.75;;;8.41;100.00
12799;BME280;19250;42.646;26.980;2023-03-16T01:06:06;97929.56;;;8.54;100.00
12799;BME280;19250;42.646;26.980;2023-03-16T01:08:35;97922.31;;;9.32;100.00
12799;BME280;19250;42.646;26.980;2023-03-16T01:11:04;97892.88;;;9.94;100.00
12799;BME280;19250;42.646;26.980;2023-03-16T01:13:31;97902.34;;;10.69;100.00
12799;BME280;19250;42.646;26.980;2023-03-16T01:15:59;97907.09;;;10.88;100.00
12799;BME280;19250;42.646;26.980;2023-03-16T01:18:27;97905.53;;;10.79;100.00
12799;BME280;19250;42.646;26.980;2023-03-16T01:20:55;97901.69;;;10.82;100.00
12799;BME280;19250;42.646;26.980;2023-03-16T01:23:23;97905.69;;;10.92;100.00
12799;BME280;19250;42.646;26.980;2023-03-16T01:25:50;97900.59;;;11.12;100.00
12799;BME280;19250;42.646;26.980;2023-03-16T01:28:19;97915.25;;;10.87;100.00
12799;BME280;19250;42.646;26.980;2023-03-16T01:30:49;97867.81;;;10.32;100.00
12799;BME280;19250;42.646;26.980;2023-03-16T01:33:18;97922.34;;;10.07;100.00
12799;BME280;19250;42.646;26.980;2023-03-16T01:35:51;97921.81;;;10.11;100.00
12799;BME280;19250;42.646;26.980;2023-03-16T01:38:21;97927.25;;;9.80;100.00
12799;BME280;19250;42.646;26.980;2023-03-16T01:40:48;97922.19;;;10.52;100.00
12799;BME280;19250;42.646;26.980;2023-03-16T01:43:17;97923.47;;;10.85;100.00
12799;BME280;19250;42.646;26.980;2023-03-16T01:46:15;97928.69;;;10.93;100.00
12799;BME280;19250;42.646;26.980;2023-03-16T01:48:48;97891.78;;;10.47;100.00
12799;BME280;19250;42.646;26.980;2023-03-16T01:51:20;97929.38;;;10.66;100.00
12799;BME280;19250;42.646;26.980;2023-03-16T01:53:53;97924.50;;;10.70;100.00
12799;BME280;19250;42.646;26.980;2023-03-16T01:56:25;97942.41;;;10.61;100.00
12799;BME280;19250;42.646;26.980;2023-03-16T01:58:55;97943.63;;;10.44;100.00
12799;BME280;19250;42.646;26.980;2023-03-16T02:01:24;97950.56;;;10.30;100.00
12799;BME280;19250;42.646;26.980;2023-03-16T02:03:56;97941.78;;;10.45;100.00
12799;BME280;19250;42.646;26.980;2023-03-16T02:06:26;97950.59;;;10.45;100.00
12799;BME280;19250;42.646;26.980;2023-03-16T02:08:56;97940.78;;;9.94;100.00
12799;BME280;19250;42.646;26.980;2023-03-16T02:11:24;97950.94;;;9.53;100.00
12799;BME280;19250;42.646;26.980;2023-03-16T02:13:51;97952.00;;;9.44;100.00
12799;BME280;19250;42.646;26.980;2023-03-16T02:16:19;97952.75;;;9.52;100.00
12799;BME280;19250;42.646;26.980;2023-03-16T02:18:47;97952.25;;;9.57;100.00
12799;BME280;19250;42.646;26.980;2023-03-16T02:21:22;97954.03;;;9.79;100.00
12799;BME280;19250;42.646;26.980;2023-03-16T02:23:56;97961.69;;;10.34;100.00
12799;BME280;19250;42.646;26.980;2023-03-16T02:26:28;97956.75;;;10.60;100.00
12799;BME280;19250;42.646;26.980;2023-03-16T02:29:10;97951.59;;;10.73;100.00
12799;BME280;19250;42.646;26.980;2023-03-16T02:31:41;97958.56;;;11.04;100.00
12799;BME280;19250;42.646;26.980;2023-03-16T02:34:12;97953.81;;;11.20;100.00
12799;BME280;19250;42.646;26.980;2023-03-16T02:36:39;97954.28;;;11.24;100.00
12799;BME280;19250;42.646;26.980;2023-03-16T02:39:08;97946.66;;;11.21;100.00
12799;BME280;19250;42.646;26.980;2023-03-16T02:41:35;97952.94;;;11.34;100.00
12799;BME280;19250;42.646;26.980;2023-03-16T02:44:08;97947.75;;;11.47;100.00
12799;BME280;19250;42.646;26.980;2023-03-16T02:46:41;97949.53;;;11.05;100.00
12799;BME280;19250;42.646;26.980;2023-03-16T02:49:14;97958.47;;;11.33;100.00
12799;BME280;19250;42.646;26.980;2023-03-16T02:51:44;97955.19;;;11.52;100.00
12799;BME280;19250;42.646;26.980;2023-03-16T02:54:12;97957.66;;;11.32;100.00
12799;BME280;19250;42.646;26.980;2023-03-16T02:56:39;97947.78;;;11.12;100.00
12799;BME280;19250;42.646;26.980;2023-03-16T02:59:07;97953.28;;;11.10;100.00
12799;BME280;19250;42.646;26.980;2023-03-16T03:01:35;97957.84;;;11.31;100.00
12799;BME280;19250;42.646;26.980;2023-03-16T03:04:04;97959.94;;;11.35;100.00
12799;BME280;19250;42.646;26.980;2023-03-16T03:06:32;97957.97;;;11.44;100.00
12799;BME280;19250;42.646;26.980;2023-03-16T03:08:59;97960.38;;;11.39;100.00
12799;BME280;19250;42.646;26.980;2023-03-16T03:11:27;97960.75;;;11.36;100.00
12799;BME280;19250;42.646;26.980;2023-03-16T03:13:54;97969.78;;;11.56;100.00
12799;BME280;19250;42.646;26.980;2023-03-16T03:16:22;97961.91;;;11.69;100.00
12799;BME280;19250;42.646;26.980;2023-03-16T03:18:49;97976.78;;;11.57;100.00
12799;BME280;19250;42.646;26.980;2023-03-16T03:21:20;97978.94;;;11.68;100.00
12799;BME280;19250;42.646;26.980;2023-03-16T03:23:49;97981.75;;;11.60;100.00
12799;BME280;19250;42.646;26.980;2023-03-16T03:26:16;97973.50;;;11.55;100.00
12799;BME280;19250;42.646;26.980;2023-03-16T03:28:44;97982.50;;;11.54;100.00
12799;BME280;19250;42.646;26.980;2023-03-16T03:31:15;97987.84;;;11.54;100.00
12799;BME280;19250;42.646;26.980;2023-03-16T03:33:44;97995.31;;;11.59;100.00
12799;BME280;19250;42.646;26.980;2023-03-16T03:36:11;97963.19;;;11.52;100.00
12799;BME280;19250;42.646;26.980;2023-03-16T03:38:40;97994.09;;;11.61;100.00
12799;BME280;19250;42.646;26.980;2023-03-16T03:41:08;97992.25;;;11.62;100.00
12799;BME280;19250;42.646;26.980;2023-03-16T03:43:36;97996.63;;;11.69;100.00
12799;BME280;19250;42.646;26.980;2023-03-16T03:46:03;97992.91;;;11.85;100.00
12799;BME280;19250;42.646;26.980;2023-03-16T03:48:30;97994.75;;;11.84;100.00
12799;BME280;19250;42.646;26.980;2023-03-16T03:50:58;97992.72;;;11.86;100.00
12799;BME280;19250;42.646;26.980;2023-03-16T03:53:25;97994.34;;;11.66;100.00
12799;BME280;19250;42.646;26.980;2023-03-16T03:55:54;97996.03;;;11.17;100.00
12799;BME280;19250;42.646;26.980;2023-03-16T03:58:21;97994.72;;;10.91;100.00
12799;BME280;19250;42.646;26.980;2023-03-16T04:00:48;98001.66;;;11.07;100.00
12799;BME280;19250;42.646;26.980;2023-03-16T04:03:17;97999.00;;;11.22;100.00
12799;BME280;19250;42.646;26.980;2023-03-16T04:05:44;97984.16;;;11.34;100.00
12799;BME280;19250;42.646;26.980;2023-03-16T04:08:12;97997.56;;;11.40;100.00
12799;BME280;19250;42.646;26.980;2023-03-16T04:10:39;97996.97;;;11.24;100.00
12799;BME280;19250;42.646;26.980;2023-03-16T04:13:08;97999.25;;;11.27;100.00
12799;BME280;19250;42.646;26.980;2023-03-16T04:15:35;98006.75;;;11.38;100.00
12799;BME280;19250;42.646;26.980;2023-03-16T04:18:04;98000.44;;;10.88;100.00
12799;BME280;19250;42.646;26.980;2023-03-16T04:20:31;98001.41;;;10.29;100.00
12799;BME280;19250;42.646;26.980;2023-03-16T04:22:58;98000.72;;;9.90;100.00
12799;BME280;19250;42.646;26.980;2023-03-16T04:25:26;98008.28;;;10.38;100.00
12799;BME280;19250;42.646;26.980;2023-03-16T04:27:55;98006.94;;;10.86;100.00
12799;BME280;19250;42.646;26.980;2023-03-16T04:30:24;98005.94;;;10.72;100.00
12799;BME280;19250;42.646;26.980;2023-03-16T04:32:51;98004.25;;;10.05;100.00
12799;BME280;19250;42.646;26.980;2023-03-16T04:35:19;98013.81;;;10.36;100.00
12799;BME280;19250;42.646;26.980;2023-03-16T04:37:46;98010.91;;;10.61;100.00
12799;BME280;19250;42.646;26.980;2023-03-16T04:40:14;98009.31;;;10.96;100.00
12799;BME280;19250;42.646;26.980;2023-03-16T04:42:42;97996.28;;;11.01;100.00
12799;BME280;19250;42.646;26.980;2023-03-16T04:45:09;98019.78;;;11.26;100.00
12799;BME280;19250;42.646;26.980;2023-03-16T04:47:39;98030.59;;;11.39;100.00
12799;BME280;19250;42.646;26.980;2023-03-16T04:50:07;98032.59;;;11.52;100.00
12799;BME280;19250;42.646;26.980;2023-03-16T04:52:35;98047.16;;;11.50;100.00
12799;BME280;19250;42.646;26.980;2023-03-16T04:55:02;98004.28;;;11.36;100.00
12799;BME280;19250;42.646;26.980;2023-03-16T04:57:30;98037.81;;;11.60;100.00
12799;BME280;19250;42.646;26.980;2023-03-16T04:59:57;98044.81;;;11.61;100.00
12799;BME280;19250;42.646;26.980;2023-03-16T05:02:25;98052.84;;;11.61;100.00
12799;BME280;19250;42.646;26.980;2023-03-16T05:04:54;98056.56;;;11.45;100.00
12799;BME280;19250;42.646;26.980;2023-03-16T05:07:22;98065.00;;;11.49;100.00
12799;BME280;19250;42.646;26.980;2023-03-16T05:09:49;98062.31;;;11.64;100.00
12799;BME280;19250;42.646;26.980;2023-03-16T05:12:16;98068.25;;;11.80;100.00
12799;BME280;19250;42.646;26.980;2023-03-16T05:14:43;98070.22;;;11.72;100.00
12799;BME280;19250;42.646;26.980;2023-03-16T05:17:11;98075.72;;;11.85;100.00
12799;BME280;19250;42.646;26.980;2023-03-16T05:19:39;98075.81;;;11.62;100.00
12799;BME280;19250;42.646;26.980;2023-03-16T05:22:08;98082.88;;;11.48;100.00
12799;BME280;19250;42.646;26.980;2023-03-16T05:24:35;98092.22;;;11.59;100.00
12799;BME280;19250;42.646;26.980;2023-03-16T05:27:03;98092.09;;;11.46;100.00
12799;BME280;19250;42.646;26.980;2023-03-16T05:29:30;98092.44;;;11.58;100.00
12799;BME280;19250;42.646;26.980;2023-03-16T05:31:59;98093.84;;;11.24;100.00
12799;BME280;19250;42.646;26.980;2023-03-16T05:34:26;98051.00;;;10.97;100.00
12799;BME280;19250;42.646;26.980;2023-03-16T05:36:53;98098.06;;;11.04;100.00
12799;BME280;19250;42.646;26.980;2023-03-16T05:39:22;98093.47;;;10.98;100.00
12799;BME280;19250;42.646;26.980;2023-03-16T05:41:49;98100.94;;;10.88;100.00
12799;BME280;19250;42.646;26.980;2023-03-16T05:44:17;98105.84;;;10.76;100.00
12799;BME280;19250;42.646;26.980;2023-03-16T05:46:44;98102.34;;;10.61;100.00
12799;BME280;19250;42.646;26.980;2023-03-16T05:49:11;98109.56;;;10.75;100.00
12799;BME280;19250;42.646;26.980;2023-03-16T05:51:38;98106.91;;;10.53;100.00
12799;BME280;19250;42.646;26.980;2023-03-16T05:54:06;98110.03;;;10.42;100.00
12799;BME280;19250;42.646;26.980;2023-03-16T05:56:34;98118.84;;;10.42;100.00
12799;BME280;19250;42.646;26.980;2023-03-16T05:59:02;98121.41;;;10.35;100.00
12799;BME280;19250;42.646;26.980;2023-03-16T06:01:29;98134.84;;;10.42;100.00
12799;BME280;19250;42.646;26.980;2023-03-16T06:03:58;98134.28;;;10.47;100.00
12799;BME280;19250;42.646;26.980;2023-03-16T06:06:26;98137.91;;;10.00;100.00
12799;BME280;19250;42.646;26.980;2023-03-16T06:08:53;98135.66;;;9.58;100.00
12799;BME280;19250;42.646;26.980;2023-03-16T06:11:20;98133.66;;;9.60;100.00
12799;BME280;19250;42.646;26.980;2023-03-16T06:13:49;98145.81;;;9.55;100.00
12799;BME280;19250;42.646;26.980;2023-03-16T06:16:16;98153.53;;;9.80;100.00
12799;BME280;19250;42.646;26.980;2023-03-16T06:18:44;98152.69;;;10.11;100.00
12799;BME280;19250;42.646;26.980;2023-03-16T06:21:11;98157.09;;;10.26;100.00
12799;BME280;19250;42.646;26.980;2023-03-16T06:23:38;98150.31;;;10.24;100.00
12799;BME280;19250;42.646;26.980;2023-03-16T06:26:05;98165.75;;;10.51;100.00
12799;BME280;19250;42.646;26.980;2023-03-16T06:28:33;98174.72;;;10.27;100.00
12799;BME280;19250;42.646;26.980;2023-03-16T06:31:02;98178.22;;;10.28;100.00
12799;BME280;19250;42.646;26.980;2023-03-16T06:33:29;98181.78;;;10.20;100.00
12799;BME280;19250;42.646;26.980;2023-03-16T06:35:57;98179.63;;;10.16;100.00
12799;BME280;19250;42.646;26.980;2023-03-16T06:38:24;98192.00;;;10.01;100.00
12799;BME280;19250;42.646;26.980;2023-03-16T06:40:51;98195.75;;;10.22;100.00
12799;BME280;19250;42.646;26.980;2023-03-16T06:43:19;98196.16;;;10.03;100.00
12799;BME280;19250;42.646;26.980;2023-03-16T06:45:46;98198.19;;;10.32;100.00
12799;BME280;19250;42.646;26.980;2023-03-16T06:48:15;98196.97;;;10.12;100.00
12799;BME280;19250;42.646;26.980;2023-03-16T06:50:44;98198.38;;;10.00;100.00
12799;BME280;19250;42.646;26.980;2023-03-16T06:53:11;98194.78;;;10.15;100.00
12799;BME280;19250;42.646;26.980;2023-03-16T06:55:38;98208.22;;;10.22;100.00
12799;BME280;19250;42.646;26.980;2023-03-16T06:58:06;98203.25;;;10.19;100.00
12799;BME280;19250;42.646;26.980;2023-03-16T07:00:33;98208.00;;;10.31;100.00
12799;BME280;19250;42.646;26.980;2023-03-16T07:03:00;98222.75;;;10.19;100.00
12799;BME280;19250;42.646;26.980;2023-03-16T07:05:29;98222.78;;;10.03;100.00
12799;BME280;19250;42.646;26.980;2023-03-16T07:07:57;98227.13;;;10.04;100.00
12799;BME280;19250;42.646;26.980;2023-03-16T07:10:24;98224.41;;;10.20;100.00
12799;BME280;19250;42.646;26.980;2023-03-16T07:12:53;98226.13;;;10.05;100.00
12799;BME280;19250;42.646;26.980;2023-03-16T07:15:21;98234.19;;;10.28;100.00
12799;BME280;19250;42.646;26.980;2023-03-16T07:17:51;98240.38;;;10.51;100.00
12799;BME280;19250;42.646;26.980;2023-03-16T07:20:18;98240.84;;;10.77;100.00
12799;BME280;19250;42.646;26.980;2023-03-16T07:22:48;98245.19;;;10.78;100.00
12799;BME280;19250;42.646;26.980;2023-03-16T07:25:15;98244.50;;;10.76;100.00
12799;BME280;19250;42.646;26.980;2023-03-16T07:27:43;98241.53;;;10.26;100.00
12799;BME280;19250;42.646;26.980;2023-03-16T07:30:12;98254.91;;;10.41;100.00
12799;BME280;19250;42.646;26.980;2023-03-16T07:32:40;98254.09;;;10.40;100.00
12799;BME280;19250;42.646;26.980;2023-03-16T07:35:08;98255.84;;;10.25;100.00
12799;BME280;19250;42.646;26.980;2023-03-16T07:37:36;98260.63;;;10.60;100.00
12799;BME280;19250;42.646;26.980;2023-03-16T07:40:05;98262.75;;;10.42;100.00
12799;BME280;19250;42.646;26.980;2023-03-16T07:42:34;98267.19;;;10.19;100.00
12799;BME280;19250;42.646;26.980;2023-03-16T07:45:01;98273.88;;;10.07;100.00
12799;BME280;19250;42.646;26.980;2023-03-16T07:47:28;98273.88;;;10.07;100.00
12799;BME280;19250;42.646;26.980;2023-03-16T07:49:56;98281.34;;;10.19;100.00
12799;BME280;19250;42.646;26.980;2023-03-16T07:52:23;98277.56;;;10.06;100.00
12799;BME280;19250;42.646;26.980;2023-03-16T07:54:51;98283.63;;;9.75;100.00
12799;BME280;19250;42.646;26.980;2023-03-16T07:57:20;98286.50;;;9.74;100.00
12799;BME280;19250;42.646;26.980;2023-03-16T07:59:48;98286.88;;;10.02;100.00
12799;BME280;19250;42.646;26.980;2023-03-16T08:02:18;98286.94;;;10.32;100.00
12799;BME280;19250;42.646;26.980;2023-03-16T08:04:46;98288.34;;;10.51;100.00
12799;BME280;19250;42.646;26.980;2023-03-16T08:07:14;98266.41;;;10.02;100.00
12799;BME280;19250;42.646;26.980;2023-03-16T08:09:42;98289.44;;;10.34;100.00
12799;BME280;19250;42.646;26.980;2023-03-16T08:12:09;98300.97;;;10.26;100.00
12799;BME280;19250;42.646;26.980;2023-03-16T08:14:38;98298.03;;;10.05;100.00
12799;BME280;19250;42.646;26.980;2023-03-16T08:17:06;98305.53;;;10.02;100.00
12799;BME280;19250;42.646;26.980;2023-03-16T08:19:33;98297.00;;;9.59;100.00
12799;BME280;19250;42.646;26.980;2023-03-16T08:22:00;98302.91;;;9.94;100.00
12799;BME280;19250;42.646;26.980;2023-03-16T08:24:28;98277.66;;;9.73;100.00
12799;BME280;19250;42.646;26.980;2023-03-16T08:26:56;98311.00;;;10.08;100.00
12799;BME280;19250;42.646;26.980;2023-03-16T08:29:23;98313.47;;;10.10;100.00
12799;BME280;19250;42.646;26.980;2023-03-16T08:31:53;98284.19;;;9.55;100.00
12799;BME280;19250;42.646;26.980;2023-03-16T08:34:22;98315.31;;;9.46;100.00
12799;BME280;19250;42.646;26.980;2023-03-16T08:36:49;98321.75;;;9.76;100.00
12799;BME280;19250;42.646;26.980;2023-03-16T08:39:16;98326.53;;;9.97;100.00
12799;BME280;19250;42.646;26.980;2023-03-16T08:41:44;98325.66;;;10.04;100.00
12799;BME280;19250;42.646;26.980;2023-03-16T08:44:12;98327.84;;;10.01;100.00
12799;BME280;19250;42.646;26.980;2023-03-16T08:46:40;98326.81;;;10.10;100.00
12799;BME280;19250;42.646;26.980;2023-03-16T08:49:09;98324.53;;;10.46;100.00
12799;BME280;19250;42.646;26.980;2023-03-16T08:51:38;98338.75;;;10.30;100.00
12799;BME280;19250;42.646;26.980;2023-03-16T08:54:05;98337.66;;;10.00;100.00
12799;BME280;19250;42.646;26.980;2023-03-16T08:56:32;98329.31;;;10.11;100.00
12799;BME280;19250;42.646;26.980;2023-03-16T08:59:00;98336.50;;;10.03;100.00
12799;BME280;19250;42.646;26.980;2023-03-16T09:01:28;98341.97;;;10.01;100.00
12799;BME280;19250;42.646;26.980;2023-03-16T09:03:56;98346.63;;;10.07;100.00
12799;BME280;19250;42.646;26.980;2023-03-16T09:06:25;98351.19;;;9.66;100.00
12799;BME280;19250;42.646;26.980;2023-03-16T09:08:53;98354.03;;;9.73;100.00
12799;BME280;19250;42.646;26.980;2023-03-16T09:11:21;98358.66;;;9.95;100.00
12799;BME280;19250;42.646;26.980;2023-03-16T09:13:48;98358.84;;;9.94;100.00
12799;BME280;19250;42.646;26.980;2023-03-16T09:16:15;98364.84;;;9.88;100.00
12799;BME280;19250;42.646;26.980;2023-03-16T09:18:43;98366.81;;;9.94;100.00
12799;BME280;19250;42.646;26.980;2023-03-16T09:21:11;98280.25;;;9.18;100.00
12799;BME280;19250;42.646;26.980;2023-03-16T09:23:40;98371.81;;;9.97;100.00
12799;BME280;19250;42.646;26.980;2023-03-16T09:26:09;98371.47;;;9.75;100.00
12799;BME280;19250;42.646;26.980;2023-03-16T09:28:39;98381.16;;;9.52;100.00
12799;BME280;19250;42.646;26.980;2023-03-16T09:31:08;98376.84;;;9.43;100.00
12799;BME280;19250;42.646;26.980;2023-03-16T09:33:36;98371.88;;;9.40;100.00
12799;BME280;19250;42.646;26.980;2023-03-16T09:36:03;98374.84;;;9.37;100.00
12799;BME280;19250;42.646;26.980;2023-03-16T09:38:31;98372.22;;;9.29;100.00
12799;BME280;19250;42.646;26.980;2023-03-16T09:41:02;98382.50;;;9.24;100.00
12799;BME280;19250;42.646;26.980;2023-03-16T09:43:50;98375.69;;;9.21;100.00
12799;BME280;19250;42.646;26.980;2023-03-16T09:46:25;98385.50;;;9.37;100.00
12799;BME280;19250;42.646;26.980;2023-03-16T09:48:54;98397.81;;;9.46;100.00
12799;BME280;19250;42.646;26.980;2023-03-16T09:51:35;98390.13;;;9.27;100.00
12799;BME280;19250;42.646;26.980;2023-03-16T09:54:11;98395.81;;;9.32;100.00
12799;BME280;19250;42.646;26.980;2023-03-16T09:56:42;98398.97;;;9.19;100.00
12799;BME280;19250;42.646;26.980;2023-03-16T09:59:12;98394.25;;;9.05;100.00
12799;BME280;19250;42.646;26.980;2023-03-16T10:01:49;98376.50;;;8.90;100.00
12799;BME280;19250;42.646;26.980;2023-03-16T10:07:20;98401.47;;;9.29;100.00
12799;BME280;19250;42.646;26.980;2023-03-16T10:09:56;98400.09;;;9.09;100.00
12799;BME280;19250;42.646;26.980;2023-03-16T10:12:31;98407.94;;;9.18;100.00
12799;BME280;19250;42.646;26.980;2023-03-16T10:15:05;98415.56;;;9.21;100.00
12799;BME280;19250;42.646;26.980;2023-03-16T10:17:37;98418.22;;;9.29;100.00
12799;BME280;19250;42.646;26.980;2023-03-16T10:20:06;98407.78;;;9.20;100.00
12799;BME280;19250;42.646;26.980;2023-03-16T10:22:37;98410.41;;;9.12;100.00
12799;BME280;19250;42.646;26.980;2023-03-16T10:25:09;98407.59;;;9.13;100.00
12799;BME280;19250;42.646;26.980;2023-03-16T10:27:42;98408.84;;;8.85;100.00
12799;BME280;19250;42.646;26.980;2023-03-16T10:30:19;98416.38;;;8.90;100.00
12799;BME280;19250;42.646;26.980;2023-03-16T10:32:48;98418.66;;;8.85;100.00
12799;BME280;19250;42.646;26.980;2023-03-16T10:35:38;98409.38;;;8.89;100.00
12799;BME280;19250;42.646;26.980;2023-03-16T10:38:07;98412.31;;;8.77;100.00
12799;BME280;19250;42.646;26.980;2023-03-16T10:40:36;98415.66;;;8.80;100.00
12799;BME280;19250;42.646;26.980;2023-03-16T10:43:11;98414.44;;;8.66;100.00
12799;BME280;19250;42.646;26.980;2023-03-16T10:45:41;98413.31;;;8.77;100.00
12799;BME280;19250;42.646;26.980;2023-03-16T10:48:12;98417.00;;;8.84;100.00
12799;BME280;19250;42.646;26.980;2023-03-16T10:50:41;98420.78;;;8.65;100.00
12799;BME280;19250;42.646;26.980;2023-03-16T10:53:15;98418.00;;;8.83;100.00
12799;BME280;19250;42.646;26.980;2023-03-16T10:55:46;98408.34;;;8.82;100.00
12799;BME280;19250;42.646;26.980;2023-03-16T10:58:24;98380.53;;;8.52;100.00
12799;BME280;19250;42.646;26.980;2023-03-16T11:00:52;98415.16;;;8.84;100.00
12799;BME280;19250;42.646;26.980;2023-03-16T11:03:21;98419.94;;;8.72;100.00
12799;BME280;19250;42.646;26.980;2023-03-16T11:05:57;98414.13;;;8.69;100.00
12799;BME280;19250;42.646;26.980;2023-03-16T11:08:26;98417.94;;;8.74;100.00
12799;BME280;19250;42.646;26.980;2023-03-16T11:10:55;98419.13;;;8.30;100.00
12799;BME280;19250;42.646;26.980;2023-03-16T11:13:32;98419.50;;;8.43;100.00
12799;BME280;19250;42.646;26.980;2023-03-16T11:16:03;98419.94;;;8.72;100.00
12799;BME280;19250;42.646;26.980;2023-03-16T11:18:36;98424.63;;;8.79;100.00
12799;BME280;19250;42.646;26.980;2023-03-16T11:21:10;98425.91;;;8.66;100.00
12799;BME280;19250;42.646;26.980;2023-03-16T11:23:43;98414.44;;;8.66;100.00
12799;BME280;19250;42.646;26.980;2023-03-16T11:26:19;98415.94;;;8.68;100.00
12799;BME280;19250;42.646;26.980;2023-03-16T11:28:51;98419.09;;;8.64;100.00
12799;BME280;19250;42.646;26.980;2023-03-16T11:31:36;98418.00;;;8.91;100.00
12799;BME280;19250;42.646;26.980;2023-03-16T11:34:13;98422.22;;;8.59;100.00
12799;BME280;19250;42.646;26.980;2023-03-16T11:36:47;98406.28;;;8.59;100.00
12799;BME280;19250;42.646;26.980;2023-03-16T11:39:25;98427.59;;;8.75;100.00
12799;BME280;19250;42.646;26.980;2023-03-16T11:42:03;98429.59;;;8.82;100.00
12799;BME280;19250;42.646;26.980;2023-03-16T11:44:42;98411.91;;;8.56;100.00
12799;BME280;19250;42.646;26.980;2023-03-16T11:47:35;98432.06;;;8.67;100.00
12799;BME280;19250;42.646;26.980;2023-03-16T11:50:13;98418.69;;;8.51;100.00
12799;BME280;19250;42.646;26.980;2023-03-16T11:52:50;98430.44;;;8.74;100.00
12799;BME280;19250;42.646;26.980;2023-03-16T11:55:33;98432.31;;;8.90;100.00
12799;BME280;19250;42.646;26.980;2023-03-16T11:58:16;98446.88;;;8.77;100.00
12799;BME280;19250;42.646;26.980;2023-03-16T12:00:54;98453.00;;;8.70;100.00
12799;BME280;19250;42.646;26.980;2023-03-16T12:06:48;98442.91;;;8.82;100.00
12799;BME280;19250;42.646;26.980;2023-03-16T12:09:55;98456.06;;;8.91;100.00
12799;BME280;19250;42.646;26.980;2023-03-16T12:12:32;98454.06;;;8.93;100.00
12799;BME280;19250;42.646;26.980;2023-03-16T12:15:25;98448.34;;;8.72;100.00
12799;BME280;19250;42.646;26.980;2023-03-16T12:18:02;98452.28;;;9.02;100.00
12799;BME280;19250;42.646;26.980;2023-03-16T12:20:39;98458.25;;;8.96;100.00
12799;BME280;19250;42.646;26.980;2023-03-16T12:23:12;98458.50;;;8.77;100.00
12799;BME280;19250;42.646;26.980;2023-03-16T12:25:44;98485.72;;;8.37;100.00
12799;BME280;19250;42.646;26.980;2023-03-16T12:28:20;98467.34;;;8.43;100.00
12799;BME280;19250;42.646;26.980;2023-03-16T12:30:54;98469.13;;;8.35;100.00
12799;BME280;19250;42.646;26.980;2023-03-16T12:33:35;98478.38;;;8.31;100.00
12799;BME280;19250;42.646;26.980;2023-03-16T12:36:30;98474.22;;;8.28;100.00
12799;BME280;19250;42.646;26.980;2023-03-16T12:39:01;98478.44;;;8.21;100.00
12799;BME280;19250;42.646;26.980;2023-03-16T12:41:35;98486.38;;;8.13;100.00
12799;BME280;19250;42.646;26.980;2023-03-16T12:44:13;98487.59;;;8.27;100.00
12799;BME280;19250;42.646;26.980;2023-03-16T12:46:50;98487.19;;;8.13;100.00
12799;BME280;19250;42.646;26.980;2023-03-16T12:49:22;98493.28;;;8.06;100.00
12799;BME280;19250;42.646;26.980;2023-03-16T12:51:58;98488.13;;;8.04;100.00
12799;BME280;19250;42.646;26.980;2023-03-16T12:54:27;98467.72;;;7.61;100.00
12799;BME280;19250;42.646;26.980;2023-03-16T12:57:00;98495.19;;;7.96;100.00
12799;BME280;19250;42.646;26.980;2023-03-16T12:59:37;98510.78;;;8.16;100.00
12799;BME280;19250;42.646;26.980;2023-03-16T13:02:13;98503.16;;;7.96;100.00
12799;BME280;19250;42.646;26.980;2023-03-16T13:04:45;98510.50;;;8.02;100.00